createdAt,value
2018-10-16T00:00:52.241Z,0.00
2018-10-16T00:01:52.229Z,0.00
2018-10-16T00:02:52.221Z,0.00
2018-10-16T00:03:52.209Z,0.00
2018-10-16T00:04:52.198Z,0.00
2018-10-16T00:05:52.186Z,0.00
2018-10-16T00:06:52.175Z,0.00
2018-10-16T00:07:52.166Z,0.00
2018-10-16T00:08:52.154Z,0.00
2018-10-16T00:09:52.143Z,0.00
2018-10-16T00:10:52.133Z,0.00
2018-10-16T00:11:52.123Z,0.00
2018-10-16T00:12:52.114Z,0.00
2018-10-16T00:13:52.103Z,0.00
2018-10-16T00:14:52.092Z,0.00
2018-10-16T00:15:52.081Z,0.00
2018-10-16T00:16:52.068Z,0.00
2018-10-16T00:17:52.058Z,0.00
2018-10-16T00:18:52.047Z,0.00
2018-10-16T00:19:52.035Z,0.00
2018-10-16T00:20:52.027Z,0.00
2018-10-16T00:21:52.015Z,0.00
2018-10-16T00:22:52.005Z,0.00
2018-10-16T00:23:51.992Z,0.00
2018-10-16T00:24:51.984Z,0.00
2018-10-16T00:25:51.971Z,0.00
2018-10-16T00:26:51.961Z,0.00
2018-10-16T00:27:51.949Z,0.00
2018-10-16T00:28:51.938Z,0.00
2018-10-16T00:29:51.930Z,0.00
2018-10-16T00:30:51.919Z,0.00
2018-10-16T00:31:51.910Z,0.00
2018-10-16T00:32:51.897Z,0.00
2018-10-16T00:33:51.885Z,0.00
2018-10-16T00:34:51.876Z,0.00
2018-10-16T00:35:51.863Z,0.00
2018-10-16T00:36:51.855Z,0.00
2018-10-16T00:37:51.842Z,0.00
2018-10-16T00:38:51.836Z,0.00
2018-10-16T00:39:51.823Z,0.00
2018-10-16T00:40:51.814Z,0.00
2018-10-16T00:41:51.798Z,0.00
2018-10-16T00:42:51.787Z,0.00
2018-10-16T00:43:51.777Z,0.00
2018-10-16T00:44:51.768Z,0.00
2018-10-16T00:45:51.756Z,0.00
2018-10-16T00:46:51.748Z,0.00
2018-10-16T00:47:51.734Z,0.00
2018-10-16T00:48:51.724Z,0.00
2018-10-16T00:49:51.714Z,0.00
2018-10-16T00:50:51.703Z,0.00
2018-10-16T00:51:51.690Z,0.00
2018-10-16T00:52:51.681Z,0.00
2018-10-16T00:53:51.669Z,0.00
2018-10-16T00:54:51.747Z,0.00
2018-10-16T00:55:51.648Z,0.00
2018-10-16T00:56:51.636Z,0.00
2018-10-16T00:57:51.627Z,0.00
2018-10-16T00:58:51.622Z,0.00
2018-10-16T00:59:51.603Z,0.00
2018-10-16T01:00:51.597Z,0.00
2018-10-16T01:01:51.583Z,0.00
2018-10-16T01:02:51.571Z,0.00
2018-10-16T01:03:51.561Z,0.00
2018-10-16T01:04:51.554Z,0.00
2018-10-16T01:05:51.542Z,0.00
2018-10-16T01:06:51.536Z,0.00
2018-10-16T01:07:51.521Z,0.00
2018-10-16T01:08:51.509Z,0.00
2018-10-16T01:09:51.498Z,0.00
2018-10-16T01:10:51.485Z,0.00
2018-10-16T01:11:51.477Z,0.00
2018-10-16T01:12:51.465Z,0.00
2018-10-16T01:13:51.458Z,0.00
2018-10-16T01:14:51.444Z,0.00
2018-10-16T01:15:51.435Z,0.00
2018-10-16T01:16:51.420Z,0.00
2018-10-16T01:17:51.411Z,0.00
2018-10-16T01:18:51.400Z,0.00
2018-10-16T01:19:51.387Z,0.00
2018-10-16T01:20:51.379Z,0.00
2018-10-16T01:21:51.368Z,0.00
2018-10-16T01:22:51.356Z,0.00
2018-10-16T01:23:51.347Z,0.00
2018-10-16T01:24:51.335Z,0.00
2018-10-16T01:25:51.325Z,0.00
2018-10-16T01:26:51.314Z,0.00
2018-10-16T01:27:51.305Z,0.00
2018-10-16T01:28:51.296Z,0.00
2018-10-16T01:29:51.282Z,0.00
2018-10-16T01:30:51.270Z,0.00
2018-10-16T01:31:51.258Z,0.00
2018-10-16T01:32:51.250Z,0.00
2018-10-16T01:33:51.237Z,0.00
2018-10-16T01:34:51.225Z,0.00
2018-10-16T01:35:51.214Z,0.00
2018-10-16T01:36:51.204Z,0.00
2018-10-16T01:37:51.193Z,0.00
2018-10-16T01:38:51.184Z,0.00
2018-10-16T01:39:51.172Z,0.00
2018-10-16T01:40:51.162Z,0.00
2018-10-16T01:41:51.153Z,0.00
2018-10-16T01:42:51.138Z,0.00
2018-10-16T01:43:51.128Z,0.00
2018-10-16T01:44:51.121Z,0.00
2018-10-16T01:45:51.108Z,0.00
2018-10-16T01:46:51.097Z,0.00
2018-10-16T01:47:51.086Z,0.00
2018-10-16T01:48:51.075Z,0.00
2018-10-16T01:49:51.068Z,0.00
2018-10-16T01:50:51.054Z,0.00
2018-10-16T01:51:51.045Z,0.00
2018-10-16T01:52:51.031Z,0.00
2018-10-16T01:53:51.021Z,0.00
2018-10-16T01:54:51.015Z,0.00
2018-10-16T01:55:50.999Z,0.00
2018-10-16T01:56:50.991Z,0.00
2018-10-16T01:57:50.980Z,0.00
2018-10-16T01:58:50.969Z,0.00
2018-10-16T01:59:50.958Z,0.00
2018-10-16T02:00:50.950Z,0.00
2018-10-16T02:01:50.936Z,0.00
2018-10-16T02:02:50.925Z,0.00
2018-10-16T02:03:50.916Z,0.00
2018-10-16T02:04:50.904Z,0.00
2018-10-16T02:05:50.900Z,0.00
2018-10-16T02:06:50.882Z,0.00
2018-10-16T02:07:50.876Z,0.00
2018-10-16T02:08:50.859Z,0.00
2018-10-16T02:09:50.850Z,0.00
2018-10-16T02:10:50.838Z,0.00
2018-10-16T02:11:50.832Z,0.00
2018-10-16T02:12:50.819Z,0.00
2018-10-16T02:13:50.807Z,0.00
2018-10-16T02:14:50.931Z,0.00
2018-10-16T02:15:50.784Z,0.00
2018-10-16T02:16:50.776Z,0.00
2018-10-16T02:17:50.763Z,0.00
2018-10-16T02:18:50.753Z,0.00
2018-10-16T02:19:50.742Z,0.00
2018-10-16T02:20:50.731Z,0.00
2018-10-16T02:21:50.720Z,0.00
2018-10-16T02:22:50.713Z,0.00
2018-10-16T02:23:50.700Z,0.00
2018-10-16T02:24:50.689Z,0.00
2018-10-16T02:25:50.676Z,0.00
2018-10-16T02:26:50.665Z,0.00
2018-10-16T02:27:50.654Z,0.00
2018-10-16T02:28:50.646Z,0.00
2018-10-16T02:29:50.634Z,0.00
2018-10-16T02:30:50.624Z,0.00
2018-10-16T02:31:50.613Z,0.00
2018-10-16T02:32:50.601Z,0.00
2018-10-16T02:33:50.598Z,0.00
2018-10-16T02:34:50.582Z,0.00
2018-10-16T02:35:50.569Z,0.00
2018-10-16T02:36:50.562Z,0.00
2018-10-16T02:37:50.562Z,0.00
2018-10-16T02:38:50.536Z,0.00
2018-10-16T02:39:50.528Z,0.00
2018-10-16T02:40:50.518Z,0.00
2018-10-16T02:41:50.504Z,0.00
2018-10-16T02:42:50.493Z,0.00
2018-10-16T02:43:50.485Z,0.00
2018-10-16T02:44:50.470Z,0.00
2018-10-16T02:45:50.463Z,0.00
2018-10-16T02:46:50.451Z,0.00
2018-10-16T02:47:50.439Z,0.00
2018-10-16T02:48:50.442Z,0.00
2018-10-16T02:49:50.423Z,0.00
2018-10-16T02:50:50.407Z,0.00
2018-10-16T02:51:50.396Z,0.00
2018-10-16T02:52:50.385Z,0.00
2018-10-16T02:53:50.378Z,0.00
2018-10-16T02:54:50.364Z,0.00
2018-10-16T02:55:50.354Z,0.00
2018-10-16T02:56:50.345Z,0.00
2018-10-16T02:57:50.334Z,0.00
2018-10-16T02:58:50.323Z,0.00
2018-10-16T02:59:50.317Z,0.00
2018-10-16T03:00:50.300Z,0.00
2018-10-16T03:01:50.291Z,0.00
2018-10-16T03:02:50.280Z,0.00
2018-10-16T03:03:50.268Z,0.00
2018-10-16T03:04:50.256Z,0.00
2018-10-16T03:05:50.247Z,0.00
2018-10-16T03:06:50.237Z,0.00
2018-10-16T03:07:50.223Z,0.00
2018-10-16T03:08:50.217Z,0.00
2018-10-16T03:09:50.205Z,0.00
2018-10-16T03:10:50.193Z,0.00
2018-10-16T03:11:50.181Z,0.00
2018-10-16T03:12:50.171Z,0.00
2018-10-16T03:13:50.159Z,0.00
2018-10-16T03:14:50.152Z,0.00
2018-10-16T03:15:50.138Z,0.00
2018-10-16T03:16:50.128Z,0.00
2018-10-16T03:17:50.115Z,0.00
2018-10-16T03:18:50.113Z,0.00
2018-10-16T03:19:50.099Z,0.00
2018-10-16T03:20:50.085Z,0.00
2018-10-16T03:21:50.073Z,0.00
2018-10-16T03:22:50.070Z,0.00
2018-10-16T03:23:50.050Z,0.00
2018-10-16T03:24:50.041Z,0.00
2018-10-16T03:25:50.027Z,0.00
2018-10-16T03:26:50.020Z,0.00
2018-10-16T03:27:50.008Z,0.00
2018-10-16T03:28:49.999Z,0.00
2018-10-16T03:29:49.989Z,0.00
2018-10-16T03:30:49.977Z,0.00
2018-10-16T03:31:49.966Z,0.00
2018-10-16T03:32:49.956Z,0.00
2018-10-16T03:33:49.945Z,0.00
2018-10-16T03:34:49.934Z,0.00
2018-10-16T03:35:49.923Z,0.00
2018-10-16T03:36:49.912Z,0.00
2018-10-16T03:37:49.900Z,0.00
2018-10-16T03:38:49.891Z,0.00
2018-10-16T03:39:49.880Z,0.00
2018-10-16T03:40:49.867Z,0.00
2018-10-16T03:41:49.859Z,0.00
2018-10-16T03:42:49.845Z,0.00
2018-10-16T03:43:49.835Z,0.00
2018-10-16T03:44:49.826Z,0.00
2018-10-16T03:45:49.814Z,0.00
2018-10-16T03:46:49.816Z,0.00
2018-10-16T03:47:49.795Z,0.00
2018-10-16T03:48:49.780Z,0.00
2018-10-16T03:49:49.775Z,0.00
2018-10-16T03:50:49.760Z,0.00
2018-10-16T03:51:49.749Z,0.00
2018-10-16T03:52:49.739Z,0.00
2018-10-16T03:53:49.730Z,0.00
2018-10-16T03:54:49.717Z,0.00
2018-10-16T03:55:49.719Z,0.00
2018-10-16T03:56:49.695Z,0.00
2018-10-16T03:57:49.685Z,0.00
2018-10-16T03:58:49.676Z,0.00
2018-10-16T03:59:49.663Z,0.00
2018-10-16T04:00:49.659Z,0.00
2018-10-16T04:01:49.642Z,0.00
2018-10-16T04:02:49.634Z,0.00
2018-10-16T04:03:49.618Z,0.00
2018-10-16T04:04:49.610Z,0.00
2018-10-16T04:05:49.598Z,0.00
2018-10-16T04:06:49.649Z,0.00
2018-10-16T04:07:49.580Z,0.00
2018-10-16T04:08:49.565Z,0.00
2018-10-16T04:09:49.558Z,0.00
2018-10-16T04:10:49.548Z,0.00
2018-10-16T04:11:49.534Z,0.00
2018-10-16T04:12:49.524Z,0.00
2018-10-16T04:13:49.514Z,0.00
2018-10-16T04:14:49.504Z,0.00
2018-10-16T04:15:49.489Z,0.00
2018-10-16T04:16:49.481Z,0.00
2018-10-16T04:17:49.472Z,0.00
2018-10-16T04:18:49.460Z,0.00
2018-10-16T04:19:49.447Z,0.00
2018-10-16T04:20:49.438Z,0.00
2018-10-16T04:21:49.432Z,0.00
2018-10-16T04:22:49.514Z,0.00
2018-10-16T04:23:49.418Z,0.00
2018-10-16T04:24:49.393Z,0.00
2018-10-16T04:25:49.382Z,0.00
2018-10-16T04:26:49.378Z,0.00
2018-10-16T04:27:49.359Z,0.00
2018-10-16T04:28:49.351Z,0.00
2018-10-16T04:29:49.340Z,0.00
2018-10-16T04:30:49.330Z,0.00
2018-10-16T04:31:49.317Z,0.00
2018-10-16T04:32:49.309Z,0.00
2018-10-16T04:33:49.298Z,0.00
2018-10-16T04:34:49.285Z,0.00
2018-10-16T04:35:49.276Z,0.00
2018-10-16T04:36:49.263Z,0.00
2018-10-16T04:37:49.252Z,0.00
2018-10-16T04:38:49.245Z,0.00
2018-10-16T04:39:49.230Z,0.00
2018-10-16T04:40:49.224Z,0.00
2018-10-16T04:41:49.212Z,0.00
2018-10-16T04:42:49.210Z,0.00
2018-10-16T04:43:49.270Z,0.00
2018-10-16T04:44:49.179Z,0.00
2018-10-16T04:45:49.167Z,0.00
2018-10-16T04:46:49.157Z,0.00
2018-10-16T04:47:49.145Z,0.00
2018-10-16T04:48:49.136Z,0.00
2018-10-16T04:49:49.124Z,0.00
2018-10-16T04:50:49.113Z,0.00
2018-10-16T04:51:49.106Z,0.00
2018-10-16T04:52:49.091Z,0.00
2018-10-16T04:53:49.080Z,0.00
2018-10-16T04:54:49.141Z,0.00
2018-10-16T04:55:49.059Z,0.00
2018-10-16T04:56:49.051Z,0.00
2018-10-16T04:57:49.044Z,0.00
2018-10-16T04:58:49.027Z,0.00
2018-10-16T04:59:49.017Z,0.00
2018-10-16T05:00:49.004Z,0.00
2018-10-16T05:01:48.992Z,0.00
2018-10-16T05:02:48.983Z,0.00
2018-10-16T05:03:48.972Z,0.00
2018-10-16T05:04:48.964Z,0.00
2018-10-16T05:05:48.953Z,0.00
2018-10-16T05:06:48.973Z,0.00
2018-10-16T05:07:48.931Z,0.00
2018-10-16T05:08:48.920Z,0.00
2018-10-16T05:09:48.910Z,0.00
2018-10-16T05:10:48.895Z,0.00
2018-10-16T05:11:48.886Z,0.00
2018-10-16T05:12:48.877Z,0.00
2018-10-16T05:13:48.867Z,0.00
2018-10-16T05:14:48.909Z,0.00
2018-10-16T05:15:48.843Z,0.00
2018-10-16T05:16:48.892Z,0.00
2018-10-16T05:17:48.821Z,0.00
2018-10-16T05:18:48.945Z,0.00
2018-10-16T05:19:48.800Z,0.00
2018-10-16T05:20:48.789Z,0.00
2018-10-16T05:21:48.779Z,0.00
2018-10-16T05:22:48.770Z,0.00
2018-10-16T05:23:48.758Z,0.00
2018-10-16T05:24:48.745Z,0.00
2018-10-16T05:25:48.736Z,0.00
2018-10-16T05:26:48.726Z,0.00
2018-10-16T05:27:48.718Z,0.00
2018-10-16T05:28:48.731Z,0.00
2018-10-16T05:29:48.693Z,0.00
2018-10-16T05:30:48.691Z,0.00
2018-10-16T05:31:48.670Z,0.00
2018-10-16T05:32:48.658Z,0.00
2018-10-16T05:33:48.649Z,0.00
2018-10-16T05:34:48.639Z,0.00
2018-10-16T05:35:48.629Z,0.00
2018-10-16T05:36:48.616Z,0.00
2018-10-16T05:37:48.606Z,0.00
2018-10-16T05:38:48.594Z,0.00
2018-10-16T05:39:48.585Z,0.00
2018-10-16T05:40:48.572Z,0.00
2018-10-16T05:41:48.565Z,0.00
2018-10-16T05:42:48.550Z,0.00
2018-10-16T05:43:48.542Z,0.00
2018-10-16T05:44:48.531Z,0.00
2018-10-16T05:45:48.522Z,0.00
2018-10-16T05:46:48.510Z,0.00
2018-10-16T05:47:48.498Z,0.00
2018-10-16T05:48:48.486Z,0.00
2018-10-16T05:49:48.477Z,0.00
2018-10-16T05:50:48.468Z,5.62
2018-10-16T05:51:48.453Z,5.62
2018-10-16T05:52:48.444Z,5.62
2018-10-16T05:53:48.435Z,5.62
2018-10-16T05:54:48.421Z,5.62
2018-10-16T05:55:48.413Z,5.62
2018-10-16T05:56:48.401Z,5.62
2018-10-16T05:57:48.391Z,11.25
2018-10-16T05:58:48.380Z,11.25
2018-10-16T05:59:48.367Z,11.25
2018-10-16T06:00:48.360Z,11.25
2018-10-16T06:01:48.348Z,11.25
2018-10-16T06:02:48.337Z,11.25
2018-10-16T06:03:48.326Z,16.87
2018-10-16T06:04:48.313Z,16.87
2018-10-16T06:05:48.414Z,16.87
2018-10-16T06:06:48.293Z,16.87
2018-10-16T06:07:48.284Z,16.87
2018-10-16T06:08:48.274Z,22.50
2018-10-16T06:09:48.261Z,22.50
2018-10-16T06:10:48.287Z,22.50
2018-10-16T06:11:48.242Z,28.12
2018-10-16T06:12:48.230Z,28.12
2018-10-16T06:13:48.218Z,28.12
2018-10-16T06:14:48.207Z,33.75
2018-10-16T06:15:48.211Z,33.75
2018-10-16T06:16:48.187Z,33.75
2018-10-16T06:17:48.173Z,39.37
2018-10-16T06:18:48.169Z,39.37
2018-10-16T06:19:48.154Z,45.00
2018-10-16T06:20:48.141Z,45.00
2018-10-16T06:21:48.137Z,50.62
2018-10-16T06:22:48.121Z,45.00
2018-10-16T06:23:48.110Z,50.62
2018-10-16T06:24:48.099Z,50.62
2018-10-16T06:25:48.090Z,56.25
2018-10-16T06:26:48.079Z,56.25
2018-10-16T06:27:48.180Z,56.25
2018-10-16T06:28:48.058Z,61.87
2018-10-16T06:29:48.045Z,61.87
2018-10-16T06:30:48.037Z,61.87
2018-10-16T06:31:48.024Z,67.50
2018-10-16T06:32:48.016Z,67.50
2018-10-16T06:33:48.002Z,67.50
2018-10-16T06:34:47.992Z,67.50
2018-10-16T06:35:47.981Z,67.50
2018-10-16T06:36:47.971Z,67.50
2018-10-16T06:37:47.959Z,73.12
2018-10-16T06:38:47.946Z,73.12
2018-10-16T06:39:47.940Z,73.12
2018-10-16T06:40:48.122Z,73.12
2018-10-16T06:41:47.969Z,73.12
2018-10-16T06:42:47.905Z,78.75
2018-10-16T06:43:47.941Z,78.75
2018-10-16T06:44:47.886Z,78.75
2018-10-16T06:45:47.877Z,78.75
2018-10-16T06:46:47.862Z,78.75
2018-10-16T06:47:47.909Z,78.75
2018-10-16T06:48:48.191Z,78.75
2018-10-16T06:49:47.829Z,78.75
2018-10-16T06:50:47.817Z,78.75
2018-10-16T06:51:47.807Z,78.75
2018-10-16T06:52:47.798Z,78.75
2018-10-16T06:53:47.787Z,84.37
2018-10-16T06:54:47.917Z,84.37
2018-10-16T06:55:47.770Z,90.00
2018-10-16T06:56:47.755Z,90.00
2018-10-16T06:57:47.743Z,95.62
2018-10-16T06:58:47.731Z,90.00
2018-10-16T06:59:47.720Z,90.00
2018-10-16T07:00:47.712Z,95.62
2018-10-16T07:01:47.701Z,95.62
2018-10-16T07:02:47.689Z,95.62
2018-10-16T07:03:47.677Z,101.25
2018-10-16T07:04:47.667Z,101.25
2018-10-16T07:05:47.655Z,106.87
2018-10-16T07:06:47.708Z,106.87
2018-10-16T07:07:47.638Z,106.87
2018-10-16T07:08:47.628Z,118.12
2018-10-16T07:09:47.611Z,118.12
2018-10-16T07:10:47.600Z,129.37
2018-10-16T07:11:47.590Z,129.37
2018-10-16T07:12:47.580Z,129.37
2018-10-16T07:13:47.568Z,129.37
2018-10-16T07:14:47.608Z,135.00
2018-10-16T07:15:47.547Z,135.00
2018-10-16T07:16:47.537Z,135.00
2018-10-16T07:17:47.524Z,135.00
2018-10-16T07:18:47.515Z,135.00
2018-10-16T07:19:47.505Z,135.00
2018-10-16T07:20:47.493Z,135.00
2018-10-16T07:21:47.483Z,135.00
2018-10-16T07:22:47.473Z,135.00
2018-10-16T07:23:47.485Z,135.00
2018-10-16T07:24:47.450Z,135.00
2018-10-16T07:25:47.443Z,135.00
2018-10-16T07:26:47.428Z,135.00
2018-10-16T07:27:47.417Z,140.62
2018-10-16T07:28:47.410Z,140.62
2018-10-16T07:29:47.399Z,140.62
2018-10-16T07:30:47.385Z,140.62
2018-10-16T07:31:47.373Z,140.62
2018-10-16T07:32:47.363Z,140.62
2018-10-16T07:33:47.356Z,146.25
2018-10-16T07:34:47.344Z,146.25
2018-10-16T07:35:47.340Z,146.25
2018-10-16T07:36:47.319Z,146.25
2018-10-16T07:37:47.432Z,146.25
2018-10-16T07:38:47.362Z,146.25
2018-10-16T07:39:47.286Z,146.25
2018-10-16T07:40:47.276Z,146.25
2018-10-16T07:41:47.268Z,146.25
2018-10-16T07:42:47.256Z,129.37
2018-10-16T07:43:47.249Z,129.37
2018-10-16T07:44:47.233Z,129.37
2018-10-16T07:45:47.223Z,151.87
2018-10-16T07:46:47.211Z,151.87
2018-10-16T07:47:47.200Z,157.50
2018-10-16T07:48:47.189Z,157.50
2018-10-16T07:49:47.179Z,157.50
2018-10-16T07:50:47.169Z,157.50
2018-10-16T07:51:47.163Z,157.50
2018-10-16T07:52:47.146Z,163.12
2018-10-16T07:53:47.136Z,163.12
2018-10-16T07:54:47.134Z,163.12
2018-10-16T07:55:47.117Z,168.75
2018-10-16T07:56:47.106Z,168.75
2018-10-16T07:57:47.108Z,168.75
2018-10-16T07:58:47.082Z,174.37
2018-10-16T07:59:47.070Z,174.37
2018-10-16T08:00:47.089Z,174.37
2018-10-16T08:01:47.048Z,180.00
2018-10-16T08:02:47.038Z,180.00
2018-10-16T08:03:47.026Z,180.00
2018-10-16T08:04:47.015Z,185.62
2018-10-16T08:05:47.007Z,185.62
2018-10-16T08:06:46.993Z,174.37
2018-10-16T08:07:46.983Z,180.00
2018-10-16T08:08:46.973Z,185.62
2018-10-16T08:09:46.961Z,185.62
2018-10-16T08:10:46.949Z,185.62
2018-10-16T08:11:46.941Z,191.25
2018-10-16T08:12:46.931Z,191.25
2018-10-16T08:13:46.922Z,196.87
2018-10-16T08:14:46.907Z,196.87
2018-10-16T08:15:46.902Z,196.87
2018-10-16T08:16:46.886Z,196.87
2018-10-16T08:17:46.876Z,196.87
2018-10-16T08:18:46.866Z,196.87
2018-10-16T08:19:46.855Z,196.87
2018-10-16T08:20:46.844Z,196.87
2018-10-16T08:21:46.834Z,196.87
2018-10-16T08:22:46.823Z,196.87
2018-10-16T08:23:46.823Z,196.87
2018-10-16T08:24:46.800Z,196.87
2018-10-16T08:25:46.791Z,196.87
2018-10-16T08:26:46.816Z,196.87
2018-10-16T08:27:46.768Z,196.87
2018-10-16T08:28:46.756Z,196.87
2018-10-16T08:29:46.745Z,196.87
2018-10-16T08:30:46.736Z,196.87
2018-10-16T08:31:46.723Z,196.87
2018-10-16T08:32:46.716Z,196.87
2018-10-16T08:33:46.703Z,191.25
2018-10-16T08:34:46.741Z,180.00
2018-10-16T08:35:46.786Z,163.12
2018-10-16T08:36:46.759Z,140.62
2018-10-16T08:37:46.663Z,140.62
2018-10-16T08:38:46.647Z,140.62
2018-10-16T08:39:46.637Z,174.37
2018-10-16T08:40:46.627Z,146.25
2018-10-16T08:41:46.665Z,146.25
2018-10-16T08:42:46.607Z,146.25
2018-10-16T08:43:46.595Z,180.00
2018-10-16T08:44:46.584Z,180.00
2018-10-16T08:45:46.571Z,157.50
2018-10-16T08:46:46.561Z,185.62
2018-10-16T08:47:46.550Z,185.62
2018-10-16T08:48:46.541Z,191.25
2018-10-16T08:49:46.530Z,168.75
2018-10-16T08:50:46.519Z,185.62
2018-10-16T08:51:46.507Z,196.87
2018-10-16T08:52:46.498Z,202.50
2018-10-16T08:53:46.486Z,202.50
2018-10-16T08:54:46.507Z,202.50
2018-10-16T08:55:46.466Z,202.50
2018-10-16T08:56:46.456Z,202.50
2018-10-16T08:57:46.448Z,208.12
2018-10-16T08:58:46.431Z,208.12
2018-10-16T08:59:46.422Z,208.12
2018-10-16T09:00:46.410Z,208.12
2018-10-16T09:01:46.400Z,208.12
2018-10-16T09:02:46.393Z,208.12
2018-10-16T09:03:46.379Z,213.75
2018-10-16T09:04:46.368Z,208.12
2018-10-16T09:05:46.358Z,208.12
2018-10-16T09:06:46.465Z,208.12
2018-10-16T09:07:46.334Z,208.12
2018-10-16T09:08:46.323Z,213.75
2018-10-16T09:09:46.317Z,213.75
2018-10-16T09:10:46.304Z,213.75
2018-10-16T09:11:46.295Z,213.75
2018-10-16T09:12:46.283Z,213.75
2018-10-16T09:13:46.326Z,213.75
2018-10-16T09:14:46.260Z,213.75
2018-10-16T09:15:46.254Z,213.75
2018-10-16T09:16:46.240Z,213.75
2018-10-16T09:17:46.228Z,213.75
2018-10-16T09:18:46.215Z,213.75
2018-10-16T09:19:46.206Z,213.75
2018-10-16T09:20:46.197Z,213.75
2018-10-16T09:21:46.184Z,213.75
2018-10-16T09:22:46.175Z,213.75
2018-10-16T09:23:46.163Z,213.75
2018-10-16T09:24:46.261Z,213.75
2018-10-16T09:25:46.142Z,219.37
2018-10-16T09:26:46.133Z,219.37
2018-10-16T09:27:46.119Z,219.37
2018-10-16T09:28:46.111Z,219.37
2018-10-16T09:29:46.100Z,219.37
2018-10-16T09:30:46.120Z,219.37
2018-10-16T09:31:46.079Z,219.37
2018-10-16T09:32:46.067Z,219.37
2018-10-16T09:33:46.057Z,219.37
2018-10-16T09:34:46.051Z,219.37
2018-10-16T09:35:46.035Z,219.37
2018-10-16T09:36:46.025Z,219.37
2018-10-16T09:37:46.238Z,219.37
2018-10-16T09:38:46.003Z,225.00
2018-10-16T09:39:45.991Z,225.00
2018-10-16T09:40:45.982Z,225.00
2018-10-16T09:41:45.973Z,225.00
2018-10-16T09:42:45.958Z,225.00
2018-10-16T09:43:45.948Z,225.00
2018-10-16T09:44:45.939Z,225.00
2018-10-16T09:45:45.926Z,230.62
2018-10-16T09:46:45.915Z,230.62
2018-10-16T09:47:45.905Z,230.62
2018-10-16T09:48:45.896Z,230.62
2018-10-16T09:49:45.886Z,230.62
2018-10-16T09:50:45.874Z,230.62
2018-10-16T09:51:45.863Z,230.62
2018-10-16T09:52:45.851Z,230.62
2018-10-16T09:53:45.844Z,230.62
2018-10-16T09:54:45.830Z,236.25
2018-10-16T09:55:45.824Z,236.25
2018-10-16T09:56:45.810Z,236.25
2018-10-16T09:57:45.798Z,236.25
2018-10-16T09:58:45.789Z,236.25
2018-10-16T09:59:45.776Z,236.25
2018-10-16T10:00:45.798Z,236.25
2018-10-16T10:01:45.755Z,236.25
2018-10-16T10:02:45.744Z,236.25
2018-10-16T10:03:45.732Z,236.25
2018-10-16T10:04:45.723Z,236.25
2018-10-16T10:05:45.710Z,236.25
2018-10-16T10:06:45.703Z,236.25
2018-10-16T10:07:45.691Z,236.25
2018-10-16T10:08:45.684Z,236.25
2018-10-16T10:09:45.669Z,236.25
2018-10-16T10:10:45.687Z,236.25
2018-10-16T10:11:45.648Z,236.25
2018-10-16T10:12:45.635Z,236.25
2018-10-16T10:13:45.624Z,236.25
2018-10-16T10:14:45.618Z,236.25
2018-10-16T10:15:45.604Z,236.25
2018-10-16T10:16:45.595Z,236.25
2018-10-16T10:17:45.582Z,236.25
2018-10-16T10:18:45.571Z,236.25
2018-10-16T10:19:45.563Z,236.25
2018-10-16T10:20:45.554Z,236.25
2018-10-16T10:21:45.540Z,236.25
2018-10-16T10:22:45.531Z,236.25
2018-10-16T10:23:45.525Z,236.25
2018-10-16T10:24:45.509Z,236.25
2018-10-16T10:25:45.509Z,236.25
2018-10-16T10:26:45.487Z,236.25
2018-10-16T10:27:45.475Z,236.25
2018-10-16T10:28:45.466Z,236.25
2018-10-16T10:29:45.577Z,236.25
2018-10-16T10:30:45.444Z,236.25
2018-10-16T10:31:45.432Z,236.25
2018-10-16T10:32:45.421Z,241.87
2018-10-16T10:33:45.409Z,241.87
2018-10-16T10:34:45.400Z,241.87
2018-10-16T10:35:45.388Z,241.87
2018-10-16T10:36:45.377Z,241.87
2018-10-16T10:37:45.367Z,241.87
2018-10-16T10:38:45.356Z,241.87
2018-10-16T10:39:45.344Z,241.87
2018-10-16T10:40:45.333Z,241.87
2018-10-16T10:41:45.324Z,241.87
2018-10-16T10:42:45.314Z,241.87
2018-10-16T10:43:45.303Z,241.87
2018-10-16T10:44:45.290Z,241.87
2018-10-16T10:45:45.281Z,241.87
2018-10-16T10:46:45.269Z,241.87
2018-10-16T10:47:45.259Z,241.87
2018-10-16T10:48:45.247Z,219.37
2018-10-16T10:49:45.246Z,163.12
2018-10-16T10:50:45.521Z,168.75
2018-10-16T10:51:45.225Z,213.75
2018-10-16T10:52:45.206Z,241.87
2018-10-16T10:53:45.195Z,247.50
2018-10-16T10:54:45.186Z,247.50
2018-10-16T10:55:45.172Z,247.50
2018-10-16T10:56:45.269Z,247.50
2018-10-16T10:57:45.150Z,247.50
2018-10-16T10:58:45.146Z,247.50
2018-10-16T10:59:45.128Z,247.50
2018-10-16T11:00:45.116Z,247.50
2018-10-16T11:01:45.107Z,247.50
2018-10-16T11:02:45.097Z,247.50
2018-10-16T11:03:45.099Z,247.50
2018-10-16T11:04:45.074Z,247.50
2018-10-16T11:05:45.064Z,247.50
2018-10-16T11:06:45.053Z,247.50
2018-10-16T11:07:45.041Z,247.50
2018-10-16T11:08:45.035Z,247.50
2018-10-16T11:09:45.024Z,247.50
2018-10-16T11:10:45.010Z,247.50
2018-10-16T11:11:44.999Z,247.50
2018-10-16T11:12:44.991Z,247.50
2018-10-16T11:13:44.979Z,247.50
2018-10-16T11:14:44.965Z,247.50
2018-10-16T11:15:44.956Z,253.12
2018-10-16T11:16:44.951Z,253.12
2018-10-16T11:17:44.935Z,253.12
2018-10-16T11:18:44.926Z,253.12
2018-10-16T11:19:44.913Z,253.12
2018-10-16T11:20:44.904Z,253.12
2018-10-16T11:21:44.892Z,253.12
2018-10-16T11:22:44.881Z,253.12
2018-10-16T11:23:44.873Z,253.12
2018-10-16T11:24:44.861Z,253.12
2018-10-16T11:25:44.849Z,253.12
2018-10-16T11:26:44.843Z,247.50
2018-10-16T11:27:44.828Z,247.50
2018-10-16T11:28:44.820Z,247.50
2018-10-16T11:29:44.807Z,247.50
2018-10-16T11:30:44.796Z,247.50
2018-10-16T11:31:44.793Z,247.50
2018-10-16T11:32:44.772Z,247.50
2018-10-16T11:33:44.763Z,247.50
2018-10-16T11:34:44.749Z,247.50
2018-10-16T11:35:44.742Z,241.87
2018-10-16T11:36:44.729Z,241.87
2018-10-16T11:37:44.719Z,241.87
2018-10-16T11:38:44.709Z,241.87
2018-10-16T11:39:44.699Z,241.87
2018-10-16T11:40:44.688Z,241.87
2018-10-16T11:41:44.677Z,236.25
2018-10-16T11:42:44.665Z,236.25
2018-10-16T11:43:44.654Z,236.25
2018-10-16T11:44:44.643Z,236.25
2018-10-16T11:45:44.676Z,230.62
2018-10-16T11:46:44.624Z,230.62
2018-10-16T11:47:44.610Z,230.62
2018-10-16T11:48:44.604Z,230.62
2018-10-16T11:49:44.588Z,225.00
2018-10-16T11:50:44.579Z,225.00
2018-10-16T11:51:44.570Z,225.00
2018-10-16T11:52:44.558Z,225.00
2018-10-16T11:53:44.547Z,225.00
2018-10-16T11:54:44.535Z,225.00
2018-10-16T11:55:44.523Z,219.37
2018-10-16T11:56:44.515Z,219.37
2018-10-16T11:57:44.503Z,219.37
2018-10-16T11:58:44.492Z,219.37
2018-10-16T11:59:44.482Z,225.00
2018-10-16T12:00:44.474Z,219.37
2018-10-16T12:01:44.460Z,219.37
2018-10-16T12:02:44.451Z,219.37
2018-10-16T12:03:44.444Z,213.75
2018-10-16T12:04:44.427Z,213.75
2018-10-16T12:05:44.415Z,213.75
2018-10-16T12:06:44.406Z,213.75
2018-10-16T12:07:44.395Z,213.75
2018-10-16T12:08:44.384Z,213.75
2018-10-16T12:09:44.374Z,213.75
2018-10-16T12:10:44.402Z,213.75
2018-10-16T12:11:44.353Z,213.75
2018-10-16T12:12:44.348Z,213.75
2018-10-16T12:13:44.328Z,213.75
2018-10-16T12:14:44.319Z,213.75
2018-10-16T12:15:44.309Z,213.75
2018-10-16T12:16:44.330Z,213.75
2018-10-16T12:17:44.288Z,213.75
2018-10-16T12:18:44.276Z,213.75
2018-10-16T12:19:44.280Z,208.12
2018-10-16T12:20:44.266Z,208.12
2018-10-16T12:21:44.247Z,208.12
2018-10-16T12:22:44.235Z,208.12
2018-10-16T12:23:44.407Z,208.12
2018-10-16T12:24:44.213Z,208.12
2018-10-16T12:25:44.203Z,208.12
2018-10-16T12:26:44.193Z,208.12
2018-10-16T12:27:44.180Z,208.12
2018-10-16T12:28:44.217Z,208.12
2018-10-16T12:29:44.161Z,208.12
2018-10-16T12:30:44.149Z,208.12
2018-10-16T12:31:44.137Z,208.12
2018-10-16T12:32:44.127Z,208.12
2018-10-16T12:33:44.116Z,208.12
2018-10-16T12:34:44.106Z,208.12
2018-10-16T12:35:44.093Z,208.12
2018-10-16T12:36:44.082Z,208.12
2018-10-16T12:37:44.073Z,208.12
2018-10-16T12:38:44.065Z,208.12
2018-10-16T12:39:44.144Z,208.12
2018-10-16T12:40:44.044Z,208.12
2018-10-16T12:41:44.030Z,208.12
2018-10-16T12:42:44.038Z,208.12
2018-10-16T12:43:44.161Z,208.12
2018-10-16T12:44:43.998Z,208.12
2018-10-16T12:45:43.989Z,208.12
2018-10-16T12:46:43.977Z,208.12
2018-10-16T12:47:43.967Z,208.12
2018-10-16T12:48:43.954Z,208.12
2018-10-16T12:49:43.946Z,208.12
2018-10-16T12:50:43.934Z,208.12
2018-10-16T12:51:43.924Z,208.12
2018-10-16T12:52:43.914Z,208.12